createdAt,value
2022-08-26T00:01:51.338Z,5.00
2022-08-26T00:04:18.947Z,4.18
2022-08-26T00:06:46.538Z,5.70
2022-08-26T00:09:16.096Z,4.77
2022-08-26T00:11:43.523Z,4.32
2022-08-26T00:14:10.675Z,4.07
2022-08-26T00:16:41.022Z,5.13
2022-08-26T00:19:15.570Z,4.60
2022-08-26T00:21:43.376Z,4.50
2022-08-26T00:24:10.618Z,4.38
2022-08-26T00:26:39.262Z,4.13
2022-08-26T00:29:08.752Z,4.88
2022-08-26T00:31:36.752Z,4.35
2022-08-26T00:34:04.573Z,3.63
2022-08-26T00:36:32.402Z,4.70
2022-08-26T00:38:59.669Z,5.47
2022-08-26T00:41:29.236Z,5.88
2022-08-26T00:43:56.398Z,5.13
2022-08-26T00:46:28.858Z,5.30
2022-08-26T00:49:00.479Z,5.80
2022-08-26T00:51:29.814Z,5.93
2022-08-26T00:54:06.038Z,5.30
2022-08-26T00:56:42.814Z,4.88
2022-08-26T00:59:12.554Z,4.72
2022-08-26T01:01:41.991Z,4.18
2022-08-26T01:04:09.843Z,6.07
2022-08-26T01:06:37.083Z,4.28
2022-08-26T01:09:04.937Z,5.40
2022-08-26T01:11:32.634Z,5.82
2022-08-26T01:14:02.069Z,3.85
2022-08-26T01:16:30.603Z,5.40
2022-08-26T01:19:01.039Z,5.25
2022-08-26T01:22:00.655Z,5.45
2022-08-26T01:24:28.297Z,6.47
2022-08-26T01:26:57.816Z,6.07
2022-08-26T01:29:25.343Z,4.07
2022-08-26T01:31:57.317Z,5.60
2022-08-26T01:34:30.501Z,4.88
2022-08-26T01:37:17.881Z,5.43
2022-08-26T01:39:46.124Z,4.88
2022-08-26T01:42:14.665Z,5.10
2022-08-26T01:44:45.193Z,6.00
2022-08-26T01:47:13.676Z,6.47
2022-08-26T01:49:41.796Z,6.10
2022-08-26T01:52:09.195Z,4.90
2022-08-26T01:54:38.021Z,4.70
2022-08-26T01:57:05.526Z,5.25
2022-08-26T01:59:32.815Z,5.22
2022-08-26T02:01:59.967Z,5.95
2022-08-26T02:04:30.060Z,5.55
2022-08-26T02:06:57.849Z,4.70
2022-08-26T02:09:27.002Z,5.07
2022-08-26T02:11:54.287Z,3.93
2022-08-26T02:14:31.185Z,5.82
2022-08-26T02:16:58.461Z,4.75
2022-08-26T02:19:29.512Z,5.27
2022-08-26T02:21:58.531Z,4.38
2022-08-26T02:24:27.807Z,7.55
2022-08-26T02:26:55.645Z,5.25
2022-08-26T02:29:25.610Z,5.38
2022-08-26T02:31:54.885Z,5.25
2022-08-26T02:34:23.585Z,5.30
2022-08-26T02:36:57.141Z,5.38
2022-08-26T02:39:24.272Z,4.10
2022-08-26T02:41:51.461Z,7.45
2022-08-26T02:44:19.207Z,3.53
2022-08-26T02:46:47.027Z,2.63
2022-08-26T02:49:14.918Z,3.67
2022-08-26T02:51:43.069Z,3.88
2022-08-26T02:54:10.336Z,3.47
2022-08-26T02:56:38.093Z,3.40
2022-08-26T02:59:05.227Z,4.47
2022-08-26T03:01:33.839Z,5.40
2022-08-26T03:04:02.298Z,4.10
2022-08-26T03:06:29.951Z,2.60
2022-08-26T03:08:57.129Z,3.20
2022-08-26T03:11:29.609Z,4.00
2022-08-26T03:14:00.576Z,3.87
2022-08-26T03:16:34.892Z,5.10
2022-08-26T03:19:02.965Z,4.97
2022-08-26T03:21:30.860Z,4.77
2022-08-26T03:23:58.512Z,3.83
2022-08-26T03:26:26.260Z,3.40
2022-08-26T03:29:12.338Z,4.83
2022-08-26T03:31:39.527Z,3.13
2022-08-26T03:34:07.190Z,3.20
2022-08-26T03:36:35.058Z,2.70
2022-08-26T03:39:02.403Z,3.83
2022-08-26T03:41:32.589Z,4.10
2022-08-26T03:44:01.846Z,3.63
2022-08-26T03:46:29.333Z,4.00
2022-08-26T03:48:57.827Z,3.67
2022-08-26T03:51:25.892Z,4.27
2022-08-26T03:53:53.573Z,4.73
2022-08-26T03:56:20.736Z,3.73
2022-08-26T03:58:47.872Z,5.17
2022-08-26T04:01:18.219Z,3.67
2022-08-26T04:04:00.354Z,3.77
2022-08-26T04:06:29.455Z,4.27
2022-08-26T04:08:57.350Z,3.07
2022-08-26T04:11:28.424Z,4.70
2022-08-26T04:13:59.466Z,3.00
2022-08-26T04:16:28.231Z,4.87
2022-08-26T04:18:56.071Z,4.33
2022-08-26T04:21:23.524Z,4.30
2022-08-26T04:23:50.993Z,4.03
2022-08-26T04:26:19.622Z,4.97
2022-08-26T04:28:47.359Z,3.97
2022-08-26T04:31:15.554Z,3.63
2022-08-26T04:33:43.565Z,3.97
2022-08-26T04:36:12.228Z,4.50
2022-08-26T04:38:39.536Z,5.17
2022-08-26T04:41:15.596Z,4.40
2022-08-26T04:43:44.844Z,5.53
2022-08-26T04:46:12.918Z,4.77
2022-08-26T04:48:41.303Z,3.37
2022-08-26T04:51:09.688Z,6.00
2022-08-26T04:53:37.173Z,4.33
2022-08-26T04:56:04.971Z,4.20
2022-08-26T04:58:32.343Z,3.73
2022-08-26T05:01:00.056Z,4.17
2022-08-26T05:03:30.229Z,5.70
2022-08-26T05:05:58.316Z,5.30
2022-08-26T05:08:25.705Z,5.77
2022-08-26T05:10:56.160Z,6.10
2022-08-26T05:13:24.874Z,5.97
2022-08-26T05:15:52.449Z,8.07
2022-08-26T05:18:21.313Z,6.27
2022-08-26T05:20:54.477Z,5.80
2022-08-26T05:23:22.848Z,6.97
2022-08-26T05:25:53.643Z,6.57
2022-08-26T05:28:23.285Z,6.80
2022-08-26T05:30:51.114Z,6.00
2022-08-26T05:33:19.284Z,5.50
2022-08-26T05:35:46.962Z,3.67
2022-08-26T05:38:15.948Z,6.70
2022-08-26T05:40:44.731Z,6.57
2022-08-26T05:43:13.441Z,7.40
2022-08-26T05:45:46.225Z,6.60
2022-08-26T05:48:14.108Z,7.43
2022-08-26T05:50:42.625Z,6.27
2022-08-26T05:53:11.284Z,5.63
2022-08-26T05:55:47.613Z,5.23
2022-08-26T05:58:14.760Z,5.50
2022-08-26T06:00:45.177Z,6.13
2022-08-26T06:03:12.471Z,6.63
2022-08-26T06:05:40.094Z,8.33
2022-08-26T06:08:14.383Z,8.90
2022-08-26T06:10:45.796Z,6.03
2022-08-26T06:13:13.612Z,6.10
2022-08-26T06:15:42.166Z,5.50
2022-08-26T06:18:09.552Z,4.97
2022-08-26T06:20:37.547Z,6.85
2022-08-26T06:23:23.330Z,4.57
2022-08-26T06:25:50.694Z,5.67
2022-08-26T06:28:19.057Z,4.90
2022-08-26T06:30:46.260Z,6.93
2022-08-26T06:33:13.889Z,4.30
2022-08-26T06:35:42.007Z,5.57
2022-08-26T06:38:10.074Z,4.23
2022-08-26T06:40:48.679Z,5.33
2022-08-26T06:43:21.111Z,4.67
2022-08-26T06:45:48.315Z,4.97
2022-08-26T06:48:17.361Z,5.67
2022-08-26T06:50:44.566Z,4.70
2022-08-26T06:53:13.552Z,6.07
2022-08-26T06:55:41.895Z,6.03
2022-08-26T06:58:09.673Z,7.43
2022-08-26T07:00:38.329Z,5.10
2022-08-26T07:03:08.850Z,5.57
2022-08-26T07:05:36.402Z,5.00
2022-08-26T07:08:03.680Z,6.05
2022-08-26T07:10:31.424Z,6.70
2022-08-26T07:12:58.607Z,4.65
2022-08-26T07:15:31.102Z,6.20
2022-08-26T07:17:58.800Z,6.40
2022-08-26T07:20:26.472Z,7.80
2022-08-26T07:22:54.675Z,4.40
2022-08-26T07:25:21.837Z,4.95
2022-08-26T07:27:53.939Z,5.45
2022-08-26T07:30:21.300Z,5.18
2022-08-26T07:32:49.677Z,4.80
2022-08-26T07:35:17.006Z,6.90
2022-08-26T07:37:44.439Z,5.65
2022-08-26T07:40:11.904Z,6.22
2022-08-26T07:42:39.983Z,4.95
2022-08-26T07:45:07.529Z,6.50
2022-08-26T07:47:34.727Z,6.63
2022-08-26T07:50:01.910Z,6.45
2022-08-26T07:52:30.086Z,6.13
2022-08-26T07:54:58.482Z,6.97
2022-08-26T07:57:26.454Z,5.28
2022-08-26T07:59:55.242Z,5.05
2022-08-26T08:02:22.845Z,5.07
2022-08-26T08:04:50.181Z,8.00
2022-08-26T08:07:17.438Z,7.57
2022-08-26T08:09:44.593Z,5.57
2022-08-26T08:12:14.178Z,5.45
2022-08-26T08:14:42.164Z,5.20
2022-08-26T08:19:43.036Z,5.20
2022-08-26T08:22:17.270Z,5.80
2022-08-26T08:24:45.487Z,5.55
2022-08-26T08:27:18.133Z,5.57
2022-08-26T08:29:50.075Z,5.28
2022-08-26T08:32:17.805Z,6.70
2022-08-26T08:34:44.979Z,4.50
2022-08-26T08:37:12.256Z,6.15
2022-08-26T08:39:39.533Z,7.30
2022-08-26T08:42:26.236Z,5.85
2022-08-26T08:44:54.750Z,4.63
2022-08-26T08:47:36.424Z,5.90
2022-08-26T08:50:33.828Z,7.38
2022-08-26T08:53:24.367Z,6.45
2022-08-26T08:55:58.071Z,9.80
2022-08-26T08:58:35.934Z,6.05
2022-08-26T09:01:05.401Z,7.63
2022-08-26T09:03:41.511Z,6.65
2022-08-26T09:06:17.369Z,5.95
2022-08-26T09:08:46.384Z,7.38
2022-08-26T09:11:17.851Z,6.30
2022-08-26T09:13:53.257Z,6.22
2022-08-26T09:16:39.231Z,6.72
2022-08-26T09:19:12.014Z,7.38
2022-08-26T09:21:39.356Z,7.32
2022-08-26T09:24:06.811Z,5.65
2022-08-26T09:26:37.032Z,6.32
2022-08-26T09:29:05.612Z,8.23
2022-08-26T09:31:35.350Z,7.45
2022-08-26T09:34:21.264Z,8.25
2022-08-26T09:36:48.554Z,6.47
2022-08-26T09:39:27.855Z,8.18
2022-08-26T09:42:16.731Z,8.93
2022-08-26T09:44:53.224Z,9.80
2022-08-26T09:47:30.330Z,8.15
2022-08-26T09:50:04.400Z,8.07
2022-08-26T09:52:36.973Z,7.50
2022-08-26T09:55:07.193Z,8.43
2022-08-26T09:57:35.837Z,7.80
2022-08-26T10:00:23.428Z,10.32
2022-08-26T10:02:54.771Z,9.05
2022-08-26T10:05:45.363Z,10.32
2022-08-26T10:08:18.052Z,10.35
2022-08-26T10:10:46.764Z,8.98
2022-08-26T10:13:23.687Z,11.63
2022-08-26T10:16:10.771Z,10.38
2022-08-26T10:18:40.986Z,9.70
2022-08-26T10:21:24.838Z,10.23
2022-08-26T10:23:54.088Z,8.85
2022-08-26T10:26:39.928Z,9.27
2022-08-26T10:29:08.862Z,8.75
2022-08-26T10:31:38.439Z,10.38
2022-08-26T10:34:07.913Z,8.18
2022-08-26T10:37:14.680Z,8.13
2022-08-26T10:39:39.934Z,10.82
2022-08-26T10:42:10.278Z,9.65
2022-08-26T10:44:38.973Z,8.02
2022-08-26T10:47:15.619Z,7.65
2022-08-26T10:49:44.342Z,7.05
2022-08-26T10:52:17.799Z,6.40
2022-08-26T10:54:57.968Z,9.18
2022-08-26T10:57:25.111Z,8.40
2022-08-26T11:00:00.987Z,7.07
2022-08-26T11:02:37.828Z,8.90
2022-08-26T11:05:18.191Z,6.93
2022-08-26T11:07:46.770Z,7.60
2022-08-26T11:10:19.917Z,6.90
2022-08-26T11:12:54.866Z,7.18
2022-08-26T11:15:24.715Z,8.80
2022-08-26T11:17:52.140Z,7.07
2022-08-26T11:20:29.161Z,6.88
2022-08-26T11:22:59.506Z,6.63
2022-08-26T11:25:30.966Z,9.18
2022-08-26T11:28:01.643Z,5.63
2022-08-26T11:30:40.254Z,7.97
2022-08-26T11:33:08.197Z,6.15
2022-08-26T11:35:37.411Z,5.75
2022-08-26T11:38:26.711Z,6.10
2022-08-26T11:41:16.610Z,4.47
2022-08-26T11:43:45.322Z,6.70
2022-08-26T11:46:13.682Z,8.25
2022-08-26T11:48:42.035Z,5.07
2022-08-26T11:51:11.132Z,6.40
2022-08-26T11:53:39.546Z,5.82
2022-08-26T11:56:09.796Z,6.90
2022-08-26T11:58:45.860Z,9.75
2022-08-26T12:01:22.099Z,8.00
2022-08-26T12:03:51.011Z,7.38
2022-08-26T12:08:55.381Z,5.40
2022-08-26T12:11:24.888Z,5.20
2022-08-26T12:13:59.472Z,7.05
2022-08-26T12:16:27.944Z,6.30
2022-08-26T12:18:55.399Z,6.85
2022-08-26T12:21:29.220Z,5.13
2022-08-26T12:24:02.091Z,6.07
2022-08-26T12:26:36.860Z,8.57
2022-08-26T12:29:19.693Z,7.00
2022-08-26T12:31:48.105Z,7.85
2022-08-26T12:34:19.208Z,6.68
2022-08-26T12:36:47.122Z,7.57
2022-08-26T12:39:16.094Z,6.85
2022-08-26T12:41:45.528Z,8.68
2022-08-26T12:44:32.003Z,6.70
2022-08-26T12:47:03.387Z,8.55
2022-08-26T12:49:30.612Z,5.82
2022-08-26T12:51:57.798Z,7.35
2022-08-26T12:54:44.993Z,6.32
2022-08-26T12:57:13.301Z,7.15
2022-08-26T12:59:40.684Z,6.30
2022-08-26T13:02:07.905Z,6.13
2022-08-26T13:04:42.717Z,6.72
2022-08-26T13:07:13.549Z,5.90
2022-08-26T13:09:41.339Z,6.15
2022-08-26T13:12:11.633Z,7.28
2022-08-26T13:14:40.477Z,7.95
2022-08-26T13:17:07.803Z,6.47
2022-08-26T13:19:35.050Z,6.22
2022-08-26T13:22:02.257Z,9.73
2022-08-26T13:24:40.557Z,6.22
2022-08-26T13:27:08.598Z,6.53
2022-08-26T13:29:35.857Z,8.38
2022-08-26T13:32:04.026Z,7.13
2022-08-26T13:34:32.395Z,8.68
2022-08-26T13:36:59.611Z,7.45
2022-08-26T13:39:26.958Z,5.88
2022-08-26T13:41:54.396Z,7.05
2022-08-26T13:44:21.770Z,6.45
2022-08-26T13:46:49.150Z,8.32
2022-08-26T13:49:16.441Z,7.57
2022-08-26T13:51:43.615Z,6.68
2022-08-26T13:54:10.820Z,6.40
2022-08-26T13:56:38.009Z,6.85
2022-08-26T13:59:06.440Z,6.85
2022-08-26T14:01:34.039Z,7.20
2022-08-26T14:04:02.633Z,5.90
2022-08-26T14:06:30.015Z,5.80
2022-08-26T14:08:57.193Z,9.05
2022-08-26T14:11:25.022Z,7.78
2022-08-26T14:13:52.471Z,5.70
2022-08-26T14:16:28.055Z,6.03
2022-08-26T14:18:55.640Z,8.15
2022-08-26T14:21:22.910Z,9.43
2022-08-26T14:23:50.094Z,7.85
2022-08-26T14:26:28.242Z,7.82
2022-08-26T14:28:56.294Z,8.90
2022-08-26T14:31:24.516Z,6.18
2022-08-26T14:33:51.801Z,5.30
2022-08-26T14:36:28.233Z,6.20
2022-08-26T14:38:56.304Z,5.60
2022-08-26T14:41:27.158Z,7.22
2022-08-26T14:44:05.770Z,7.45
2022-08-26T14:46:34.848Z,7.22
2022-08-26T14:49:05.263Z,7.50
2022-08-26T14:51:34.594Z,7.22
2022-08-26T14:54:13.858Z,6.38
2022-08-26T14:56:47.279Z,6.25
2022-08-26T14:59:15.589Z,7.75
2022-08-26T15:01:43.122Z,5.78
2022-08-26T15:04:10.359Z,6.85
2022-08-26T15:06:38.175Z,8.90
2022-08-26T15:09:06.039Z,5.55
2022-08-26T15:11:33.251Z,7.43
2022-08-26T15:14:00.580Z,7.35
2022-08-26T15:16:28.980Z,6.95
2022-08-26T15:18:56.717Z,6.10
2022-08-26T15:21:24.502Z,7.75
2022-08-26T15:23:52.235Z,6.65
2022-08-26T15:26:19.922Z,7.05
2022-08-26T15:28:48.569Z,5.72
2022-08-26T15:31:15.931Z,7.90
2022-08-26T15:33:43.163Z,7.25
2022-08-26T15:36:10.691Z,7.13
2022-08-26T15:38:39.593Z,7.93
2022-08-26T15:41:08.578Z,6.60
2022-08-26T15:43:36.467Z,7.35
2022-08-26T15:46:03.926Z,5.97
2022-08-26T15:48:31.205Z,6.43
2022-08-26T15:51:00.244Z,7.60
2022-08-26T15:53:27.630Z,7.00
2022-08-26T15:55:55.370Z,7.38
2022-08-26T15:58:24.740Z,7.40
2022-08-26T16:00:53.979Z,7.18
2022-08-26T16:03:21.689Z,7.88
2022-08-26T16:05:49.012Z,8.27
2022-08-26T16:08:16.282Z,6.55
2022-08-26T16:10:49.767Z,7.88
2022-08-26T16:13:18.883Z,6.22
2022-08-26T16:15:46.958Z,6.57
2022-08-26T16:18:15.469Z,7.35
2022-08-26T16:21:05.004Z,8.50
2022-08-26T16:23:38.393Z,9.90
2022-08-26T16:26:10.631Z,14.30
2022-08-26T16:28:38.440Z,9.32
2022-08-26T16:31:06.363Z,11.73
2022-08-26T16:33:33.616Z,7.82
2022-08-26T16:36:00.794Z,13.90
2022-08-26T16:38:28.071Z,7.50
2022-08-26T16:40:55.291Z,6.63
2022-08-26T16:43:22.465Z,13.43
2022-08-26T16:45:49.618Z,8.77
2022-08-26T16:48:16.789Z,11.30
2022-08-26T16:50:43.946Z,9.88
2022-08-26T16:55:46.793Z,7.18
2022-08-26T16:58:14.661Z,8.90
2022-08-26T17:00:41.865Z,8.77
2022-08-26T17:03:09.140Z,8.25
2022-08-26T17:05:36.584Z,6.95
2022-08-26T17:08:04.347Z,9.02
2022-08-26T17:10:32.827Z,7.45
2022-08-26T17:13:00.334Z,7.40
2022-08-26T17:15:28.507Z,9.35
2022-08-26T17:17:56.767Z,8.75
2022-08-26T17:20:24.492Z,7.30
2022-08-26T17:22:53.224Z,6.57
2022-08-26T17:25:24.926Z,7.18
2022-08-26T17:27:52.182Z,5.80
2022-08-26T17:30:19.465Z,7.65
2022-08-26T17:32:46.945Z,7.65
2022-08-26T17:35:15.521Z,9.05
2022-08-26T17:37:42.686Z,7.95
2022-08-26T17:40:11.267Z,7.95
2022-08-26T17:42:39.436Z,8.30
2022-08-26T17:45:06.946Z,7.95
2022-08-26T17:47:34.103Z,9.35
2022-08-26T17:50:01.576Z,7.45
2022-08-26T17:52:29.383Z,8.27
2022-08-26T17:54:57.127Z,8.35
2022-08-26T17:57:24.797Z,7.35
2022-08-26T17:59:52.799Z,6.72
2022-08-26T18:02:20.970Z,7.57
2022-08-26T18:04:48.603Z,8.00
2022-08-26T18:07:16.389Z,6.90
2022-08-26T18:09:43.984Z,7.40
2022-08-26T18:12:11.503Z,8.50
2022-08-26T18:14:38.881Z,9.35
2022-08-26T18:17:06.132Z,6.97
2022-08-26T18:19:33.355Z,7.95
2022-08-26T18:22:00.503Z,7.85
2022-08-26T18:24:30.365Z,8.15
2022-08-26T18:26:57.630Z,10.30
2022-08-26T18:29:25.506Z,9.07
2022-08-26T18:31:52.821Z,9.07
2022-08-26T18:34:20.947Z,8.52
2022-08-26T18:36:48.446Z,11.63
2022-08-26T18:39:18.890Z,9.90
2022-08-26T18:41:50.670Z,10.50
2022-08-26T18:44:24.342Z,10.07
2022-08-26T18:46:52.288Z,7.95
2022-08-26T18:49:20.964Z,7.22
2022-08-26T18:51:50.980Z,8.48
2022-08-26T18:56:54.227Z,10.30
2022-08-26T18:59:28.796Z,9.20
2022-08-26T19:01:57.845Z,10.82
2022-08-26T19:04:25.445Z,11.15
2022-08-26T19:06:52.849Z,8.85
2022-08-26T19:09:26.136Z,8.30
2022-08-26T19:11:54.263Z,9.98
2022-08-26T19:14:21.388Z,9.18
2022-08-26T19:16:49.938Z,8.65
2022-08-26T19:19:17.327Z,10.25
2022-08-26T19:21:44.512Z,9.55
2022-08-26T19:24:15.523Z,8.93
2022-08-26T19:26:43.571Z,10.40
2022-08-26T19:29:10.847Z,9.43
2022-08-26T19:31:38.058Z,7.95
2022-08-26T19:34:05.824Z,7.50
2022-08-26T19:36:34.188Z,8.82
2022-08-26T19:39:04.702Z,9.82
2022-08-26T19:41:37.560Z,7.88
2022-08-26T19:44:07.433Z,9.80
2022-08-26T19:46:34.774Z,7.93
2022-08-26T19:49:01.935Z,7.45
2022-08-26T19:51:29.983Z,7.72
2022-08-26T19:53:58.949Z,10.85
2022-08-26T19:56:27.973Z,9.10
2022-08-26T19:58:55.305Z,11.50
2022-08-26T20:01:23.037Z,9.57
2022-08-26T20:03:50.468Z,8.75
2022-08-26T20:06:17.850Z,10.43
2022-08-26T20:08:45.499Z,8.10
2022-08-26T20:11:14.558Z,8.38
2022-08-26T20:13:42.327Z,7.53
2022-08-26T20:16:11.851Z,6.88
2022-08-26T20:18:58.940Z,7.97
2022-08-26T20:21:26.305Z,8.48
2022-08-26T20:23:54.530Z,9.70
2022-08-26T20:26:21.694Z,7.82
2022-08-26T20:28:51.067Z,8.85
2022-08-26T20:31:19.454Z,9.32
2022-08-26T20:33:46.947Z,8.18
2022-08-26T20:36:15.095Z,8.15
2022-08-26T20:38:42.254Z,9.05
2022-08-26T20:41:10.445Z,9.00
2022-08-26T20:43:37.593Z,6.85
2022-08-26T20:46:04.859Z,7.53
2022-08-26T20:48:38.108Z,7.55
2022-08-26T20:51:05.940Z,7.55
2022-08-26T20:53:33.244Z,7.13
2022-08-26T20:56:04.939Z,9.27
2022-08-26T20:58:32.463Z,6.50
2022-08-26T21:01:02.019Z,8.10
2022-08-26T21:03:33.093Z,7.57
2022-08-26T21:06:00.575Z,7.60
2022-08-26T21:08:27.767Z,8.35
2022-08-26T21:10:54.911Z,7.38
2022-08-26T21:13:23.416Z,8.93
2022-08-26T21:15:50.604Z,8.38
2022-08-26T21:18:17.953Z,7.35
2022-08-26T21:20:45.186Z,7.28
2022-08-26T21:23:13.590Z,7.83
2022-08-26T21:25:41.354Z,6.85
2022-08-26T21:28:08.767Z,6.53
2022-08-26T21:30:37.898Z,7.30
2022-08-26T21:33:05.084Z,8.43
2022-08-26T21:35:32.300Z,6.60
2022-08-26T21:37:59.694Z,8.90
2022-08-26T21:40:27.815Z,6.95
2022-08-26T21:42:55.206Z,8.60
2022-08-26T21:45:22.408Z,9.88
2022-08-26T21:47:49.598Z,8.20
2022-08-26T21:50:17.207Z,8.25
2022-08-26T21:52:44.370Z,7.23
2022-08-26T21:55:11.923Z,6.90
2022-08-26T21:57:39.120Z,8.85
2022-08-26T22:00:08.860Z,8.63
2022-08-26T22:02:37.105Z,8.85
2022-08-26T22:05:04.629Z,7.73
2022-08-26T22:07:31.829Z,8.43
2022-08-26T22:09:59.027Z,8.68
2022-08-26T22:12:26.234Z,8.30
2022-08-26T22:14:53.922Z,7.63
2022-08-26T22:17:22.478Z,7.57
2022-08-26T22:19:50.085Z,9.40
2022-08-26T22:22:17.506Z,7.03
2022-08-26T22:24:44.791Z,8.10
2022-08-26T22:27:12.438Z,7.57
2022-08-26T22:29:39.765Z,8.67
2022-08-26T22:32:07.265Z,9.37
2022-08-26T22:34:34.831Z,8.40
2022-08-26T22:37:03.201Z,8.30
2022-08-26T22:39:31.142Z,8.57
2022-08-26T22:41:58.630Z,9.37
2022-08-26T22:44:26.420Z,7.67
2022-08-26T22:46:54.366Z,7.47
2022-08-26T22:49:21.698Z,8.93
2022-08-26T22:51:48.970Z,9.17
2022-08-26T22:54:16.570Z,8.60
2022-08-26T22:56:44.796Z,8.13
2022-08-26T22:59:12.609Z,8.03
2022-08-26T23:01:42.546Z,7.67
2022-08-26T23:04:10.967Z,8.20
2022-08-26T23:06:39.717Z,8.70
2022-08-26T23:09:07.601Z,8.07
2022-08-26T23:11:35.282Z,7.63
2022-08-26T23:14:02.901Z,7.47
2022-08-26T23:16:39.462Z,8.23
2022-08-26T23:19:07.610Z,8.53
2022-08-26T23:21:34.942Z,9.33
2022-08-26T23:24:02.364Z,8.87
2022-08-26T23:26:29.545Z,9.07
2022-08-26T23:28:56.723Z,6.77
2022-08-26T23:31:24.018Z,8.50
2022-08-26T23:34:10.201Z,8.60
2022-08-26T23:36:37.477Z,7.60
2022-08-26T23:39:06.121Z,7.97
2022-08-26T23:41:33.290Z,8.27
2022-08-26T23:44:03.430Z,7.73
2022-08-26T23:46:31.158Z,9.40
2022-08-26T23:48:58.333Z,8.07
2022-08-26T23:51:44.069Z,8.63
2022-08-26T23:54:13.685Z,7.77
2022-08-26T23:56:41.496Z,7.70
2022-08-26T23:59:08.710Z,10.03
